Buxton, Maine
Current Conditions -  °F | °C
As of 10:51 AM on Thursday 30 Oct 2014 (Local Time) from KPWM Reporting Station
Overcast Overcast  
Wind Chill: 51°   Ceiling: 8500
Heat Index: 51°   Visibility: 10mi
Dew Point: 43°   Wind: 6mph
Humidity: 74%   Direction: 310°NW
Pressure: 29.91"   Gusts: NA
Location:  43.6671°N, 70.5709°W
Report Text: KPWM 301451Z 31005KT 10SM OVC085 11/06 A2991 RMK AO2 SLP128 T01060061 51004
Loading
Personal Weather Stations






























Interactive Weather Map
Tropical Storm Tracking
New forecast layout! Learn more

10-Day Weather Forecast

Advertisements
Track Severe Weather on mobile